<?xml version="1.0" encoding="UTF-8" standalone="no" ?>
<gpx xmlns="http://www.topografix.com/GPX/1/1" xmlns:xsi="http://www.w3.org/2001/XMLSchema-instance" xsi:schemaLocation="http://www.topografix.com/GPX/1/1 http://www.topografix.com/GPX/1/1/gpx.xsd" version="1.1" creator="VisuGPX - https://www.visugpx.com">
  <metadata>
    <name>Circuit Attelage</name>
    <desc><![CDATA[La route que nous allons effectuer]]></desc>
  </metadata>
  <trk>
    <name><![CDATA[2017-09-25 10:57:33]]></name>
    <trkseg>
      <trkpt lat="43.83741" lon="4.9372">
        <ele>42.44</ele>
        <time>2017-09-25T07:30:32Z</time>
      </trkpt>
      <trkpt lat="43.83737" lon="4.9372">
        <ele>43.4</ele>
        <time>2017-09-25T07:30:52Z</time>
      </trkpt>
      <trkpt lat="43.83742" lon="4.93718">
        <ele>52.53</ele>
        <time>2017-09-25T07:31:20Z</time>
      </trkpt>
      <trkpt lat="43.83742" lon="4.93717">
        <ele>53.01</ele>
        <time>2017-09-25T07:31:42Z</time>
      </trkpt>
      <trkpt lat="43.83733" lon="4.93721">
        <ele>52.53</ele>
        <time>2017-09-25T07:32:14Z</time>
      </trkpt>
      <trkpt lat="43.83747" lon="4.93726">
        <ele>53.49</ele>
        <time>2017-09-25T07:32:30Z</time>
      </trkpt>
      <trkpt lat="43.83757" lon="4.93731">
        <ele>57.82</ele>
        <time>2017-09-25T07:32:52Z</time>
      </trkpt>
      <trkpt lat="43.83741" lon="4.93741">
        <ele>54.93</ele>
        <time>2017-09-25T07:33:03Z</time>
      </trkpt>
      <trkpt lat="43.83729" lon="4.93744">
        <ele>53.01</ele>
        <time>2017-09-25T07:33:07Z</time>
      </trkpt>
      <trkpt lat="43.83713" lon="4.93748">
        <ele>51.09</ele>
        <time>2017-09-25T07:33:19Z</time>
      </trkpt>
      <trkpt lat="43.83711" lon="4.9375">
        <ele>50.61</ele>
        <time>2017-09-25T07:33:30Z</time>
      </trkpt>
      <trkpt lat="43.8371" lon="4.93751">
        <ele>50.61</ele>
        <time>2017-09-25T07:33:31Z</time>
      </trkpt>
      <trkpt lat="43.83671" lon="4.9376">
        <ele>47.24</ele>
        <time>2017-09-25T07:33:43Z</time>
      </trkpt>
      <trkpt lat="43.83631" lon="4.93764">
        <ele>49.65</ele>
        <time>2017-09-25T07:33:54Z</time>
      </trkpt>
      <trkpt lat="43.8363" lon="4.93766">
        <ele>49.65</ele>
        <time>2017-09-25T07:33:55Z</time>
      </trkpt>
      <trkpt lat="43.83629" lon="4.9377">
        <ele>49.16</ele>
        <time>2017-09-25T07:33:56Z</time>
      </trkpt>
      <trkpt lat="43.83629" lon="4.93773">
        <ele>49.16</ele>
        <time>2017-09-25T07:33:57Z</time>
      </trkpt>
      <trkpt lat="43.83628" lon="4.93777">
        <ele>49.16</ele>
        <time>2017-09-25T07:33:58Z</time>
      </trkpt>
      <trkpt lat="43.83627" lon="4.93877">
        <ele>47.24</ele>
        <time>2017-09-25T07:34:15Z</time>
      </trkpt>
      <trkpt lat="43.83632" lon="4.93974">
        <ele>47.72</ele>
        <time>2017-09-25T07:34:29Z</time>
      </trkpt>
      <trkpt lat="43.83633" lon="4.9406">
        <ele>49.65</ele>
        <time>2017-09-25T07:34:45Z</time>
      </trkpt>
      <trkpt lat="43.8363" lon="4.94061">
        <ele>49.65</ele>
        <time>2017-09-25T07:34:46Z</time>
      </trkpt>
      <trkpt lat="43.83627" lon="4.9406">
        <ele>49.65</ele>
        <time>2017-09-25T07:34:47Z</time>
      </trkpt>
      <trkpt lat="43.83624" lon="4.94058">
        <ele>49.65</ele>
        <time>2017-09-25T07:34:48Z</time>
      </trkpt>
      <trkpt lat="43.83621" lon="4.94057">
        <ele>49.16</ele>
        <time>2017-09-25T07:34:49Z</time>
      </trkpt>
      <trkpt lat="43.83618" lon="4.94057">
        <ele>49.16</ele>
        <time>2017-09-25T07:34:50Z</time>
      </trkpt>
      <trkpt lat="43.83615" lon="4.94058">
        <ele>49.16</ele>
        <time>2017-09-25T07:34:51Z</time>
      </trkpt>
      <trkpt lat="43.83612" lon="4.9406">
        <ele>49.16</ele>
        <time>2017-09-25T07:34:52Z</time>
      </trkpt>
      <trkpt lat="43.8361" lon="4.94062">
        <ele>49.16</ele>
        <time>2017-09-25T07:34:53Z</time>
      </trkpt>
      <trkpt lat="43.83579" lon="4.94089">
        <ele>48.68</ele>
        <time>2017-09-25T07:35:06Z</time>
      </trkpt>
      <trkpt lat="43.83539" lon="4.94127">
        <ele>51.09</ele>
        <time>2017-09-25T07:35:20Z</time>
      </trkpt>
      <trkpt lat="43.83501" lon="4.94171">
        <ele>54.93</ele>
        <time>2017-09-25T07:35:35Z</time>
      </trkpt>
      <trkpt lat="43.83496" lon="4.94213">
        <ele>58.3</ele>
        <time>2017-09-25T07:35:45Z</time>
      </trkpt>
      <trkpt lat="43.83496" lon="4.94217">
        <ele>58.78</ele>
        <time>2017-09-25T07:35:46Z</time>
      </trkpt>
      <trkpt lat="43.83497" lon="4.94221">
        <ele>58.78</ele>
        <time>2017-09-25T07:35:47Z</time>
      </trkpt>
      <trkpt lat="43.83499" lon="4.94225">
        <ele>58.78</ele>
        <time>2017-09-25T07:35:48Z</time>
      </trkpt>
      <trkpt lat="43.83501" lon="4.94229">
        <ele>58.78</ele>
        <time>2017-09-25T07:35:49Z</time>
      </trkpt>
      <trkpt lat="43.83503" lon="4.94233">
        <ele>58.78</ele>
        <time>2017-09-25T07:35:50Z</time>
      </trkpt>
      <trkpt lat="43.83521" lon="4.9427">
        <ele>55.89</ele>
        <time>2017-09-25T07:36:04Z</time>
      </trkpt>
      <trkpt lat="43.83522" lon="4.94271">
        <ele>56.37</ele>
        <time>2017-09-25T07:36:05Z</time>
      </trkpt>
      <trkpt lat="43.83524" lon="4.94273">
        <ele>56.37</ele>
        <time>2017-09-25T07:36:06Z</time>
      </trkpt>
      <trkpt lat="43.83525" lon="4.94275">
        <ele>56.37</ele>
        <time>2017-09-25T07:36:07Z</time>
      </trkpt>
      <trkpt lat="43.83527" lon="4.94277">
        <ele>56.37</ele>
        <time>2017-09-25T07:36:08Z</time>
      </trkpt>
      <trkpt lat="43.83529" lon="4.94279">
        <ele>56.37</ele>
        <time>2017-09-25T07:36:09Z</time>
      </trkpt>
      <trkpt lat="43.83544" lon="4.94312">
        <ele>54.45</ele>
        <time>2017-09-25T07:36:18Z</time>
      </trkpt>
      <trkpt lat="43.83548" lon="4.94341">
        <ele>49.16</ele>
        <time>2017-09-25T07:36:30Z</time>
      </trkpt>
      <trkpt lat="43.83549" lon="4.94344">
        <ele>49.16</ele>
        <time>2017-09-25T07:36:31Z</time>
      </trkpt>
      <trkpt lat="43.83551" lon="4.94347">
        <ele>48.68</ele>
        <time>2017-09-25T07:36:32Z</time>
      </trkpt>
      <trkpt lat="43.83553" lon="4.9435">
        <ele>48.68</ele>
        <time>2017-09-25T07:36:33Z</time>
      </trkpt>
      <trkpt lat="43.83556" lon="4.94353">
        <ele>49.16</ele>
        <time>2017-09-25T07:36:34Z</time>
      </trkpt>
      <trkpt lat="43.83557" lon="4.94355">
        <ele>49.16</ele>
        <time>2017-09-25T07:36:35Z</time>
      </trkpt>
      <trkpt lat="43.83558" lon="4.94358">
        <ele>49.16</ele>
        <time>2017-09-25T07:36:36Z</time>
      </trkpt>
      <trkpt lat="43.83568" lon="4.94371">
        <ele>49.65</ele>
        <time>2017-09-25T07:36:48Z</time>
      </trkpt>
      <trkpt lat="43.83571" lon="4.94369">
        <ele>47.24</ele>
        <time>2017-09-25T07:37:12Z</time>
      </trkpt>
      <trkpt lat="43.8357" lon="4.94372">
        <ele>47.72</ele>
        <time>2017-09-25T07:37:37Z</time>
      </trkpt>
      <trkpt lat="43.8357" lon="4.94375">
        <ele>48.2</ele>
        <time>2017-09-25T07:37:39Z</time>
      </trkpt>
      <trkpt lat="43.83554" lon="4.94398">
        <ele>52.53</ele>
        <time>2017-09-25T07:37:53Z</time>
      </trkpt>
      <trkpt lat="43.83538" lon="4.94412">
        <ele>51.57</ele>
        <time>2017-09-25T07:38:07Z</time>
      </trkpt>
      <trkpt lat="43.83536" lon="4.94416">
        <ele>52.53</ele>
        <time>2017-09-25T07:38:10Z</time>
      </trkpt>
      <trkpt lat="43.83534" lon="4.94416">
        <ele>52.53</ele>
        <time>2017-09-25T07:38:11Z</time>
      </trkpt>
      <trkpt lat="43.83533" lon="4.94416">
        <ele>52.53</ele>
        <time>2017-09-25T07:38:12Z</time>
      </trkpt>
      <trkpt lat="43.83531" lon="4.94416">
        <ele>52.53</ele>
        <time>2017-09-25T07:38:13Z</time>
      </trkpt>
      <trkpt lat="43.83528" lon="4.94415">
        <ele>52.05</ele>
        <time>2017-09-25T07:38:14Z</time>
      </trkpt>
      <trkpt lat="43.83526" lon="4.94415">
        <ele>52.05</ele>
        <time>2017-09-25T07:38:15Z</time>
      </trkpt>
      <trkpt lat="43.83523" lon="4.94414">
        <ele>52.05</ele>
        <time>2017-09-25T07:38:16Z</time>
      </trkpt>
      <trkpt lat="43.83521" lon="4.94414">
        <ele>51.57</ele>
        <time>2017-09-25T07:38:17Z</time>
      </trkpt>
      <trkpt lat="43.83515" lon="4.94411">
        <ele>54.45</ele>
        <time>2017-09-25T07:38:30Z</time>
      </trkpt>
      <trkpt lat="43.83512" lon="4.94414">
        <ele>56.37</ele>
        <time>2017-09-25T07:38:48Z</time>
      </trkpt>
      <trkpt lat="43.83511" lon="4.94414">
        <ele>59.26</ele>
        <time>2017-09-25T07:39:16Z</time>
      </trkpt>
      <trkpt lat="43.83513" lon="4.94414">
        <ele>59.26</ele>
        <time>2017-09-25T07:39:44Z</time>
      </trkpt>
      <trkpt lat="43.83512" lon="4.94414">
        <ele>56.37</ele>
        <time>2017-09-25T07:40:20Z</time>
      </trkpt>
      <trkpt lat="43.83486" lon="4.94409">
        <ele>54.45</ele>
        <time>2017-09-25T07:40:31Z</time>
      </trkpt>
      <trkpt lat="43.83443" lon="4.94398">
        <ele>52.53</ele>
        <time>2017-09-25T07:40:43Z</time>
      </trkpt>
      <trkpt lat="43.83417" lon="4.94374">
        <ele>50.61</ele>
        <time>2017-09-25T07:40:55Z</time>
      </trkpt>
      <trkpt lat="43.83411" lon="4.94347">
        <ele>52.53</ele>
        <time>2017-09-25T07:41:09Z</time>
      </trkpt>
      <trkpt lat="43.83409" lon="4.94339">
        <ele>54.45</ele>
        <time>2017-09-25T07:41:24Z</time>
      </trkpt>
      <trkpt lat="43.83408" lon="4.94339">
        <ele>53.97</ele>
        <time>2017-09-25T07:42:05Z</time>
      </trkpt>
      <trkpt lat="43.83408" lon="4.9434">
        <ele>50.61</ele>
        <time>2017-09-25T07:42:46Z</time>
      </trkpt>
      <trkpt lat="43.83405" lon="4.94342">
        <ele>52.05</ele>
        <time>2017-09-25T07:43:26Z</time>
      </trkpt>
      <trkpt lat="43.83405" lon="4.9434">
        <ele>56.37</ele>
        <time>2017-09-25T07:44:11Z</time>
      </trkpt>
      <trkpt lat="43.83405" lon="4.94337">
        <ele>56.37</ele>
        <time>2017-09-25T07:44:43Z</time>
      </trkpt>
      <trkpt lat="43.83405" lon="4.9434">
        <ele>56.86</ele>
        <time>2017-09-25T07:45:18Z</time>
      </trkpt>
      <trkpt lat="43.83407" lon="4.9434">
        <ele>51.09</ele>
        <time>2017-09-25T07:45:53Z</time>
      </trkpt>
      <trkpt lat="43.83407" lon="4.94337">
        <ele>58.3</ele>
        <time>2017-09-25T07:46:28Z</time>
      </trkpt>
      <trkpt lat="43.83404" lon="4.94329">
        <ele>54.93</ele>
        <time>2017-09-25T07:46:55Z</time>
      </trkpt>
      <trkpt lat="43.83389" lon="4.94279">
        <ele>56.86</ele>
        <time>2017-09-25T07:47:07Z</time>
      </trkpt>
      <trkpt lat="43.83387" lon="4.94273">
        <ele>57.34</ele>
        <time>2017-09-25T07:47:08Z</time>
      </trkpt>
      <trkpt lat="43.83359" lon="4.94172">
        <ele>60.7</ele>
        <time>2017-09-25T07:47:26Z</time>
      </trkpt>
      <trkpt lat="43.8335" lon="4.9414">
        <ele>60.7</ele>
        <time>2017-09-25T07:47:33Z</time>
      </trkpt>
      <trkpt lat="43.83349" lon="4.94134">
        <ele>60.7</ele>
        <time>2017-09-25T07:47:34Z</time>
      </trkpt>
      <trkpt lat="43.83326" lon="4.94034">
        <ele>59.74</ele>
        <time>2017-09-25T07:47:50Z</time>
      </trkpt>
      <trkpt lat="43.8329" lon="4.93919">
        <ele>57.34</ele>
        <time>2017-09-25T07:48:09Z</time>
      </trkpt>
      <trkpt lat="43.83245" lon="4.93824">
        <ele>57.82</ele>
        <time>2017-09-25T07:48:25Z</time>
      </trkpt>
      <trkpt lat="43.83201" lon="4.93731">
        <ele>58.78</ele>
        <time>2017-09-25T07:48:41Z</time>
      </trkpt>
      <trkpt lat="43.83147" lon="4.93612">
        <ele>58.78</ele>
        <time>2017-09-25T07:49:01Z</time>
      </trkpt>
      <trkpt lat="43.83104" lon="4.93518">
        <ele>58.3</ele>
        <time>2017-09-25T07:49:18Z</time>
      </trkpt>
      <trkpt lat="43.83105" lon="4.93513">
        <ele>58.3</ele>
        <time>2017-09-25T07:49:19Z</time>
      </trkpt>
      <trkpt lat="43.83107" lon="4.9351">
        <ele>57.82</ele>
        <time>2017-09-25T07:49:20Z</time>
      </trkpt>
      <trkpt lat="43.8311" lon="4.93507">
        <ele>57.82</ele>
        <time>2017-09-25T07:49:21Z</time>
      </trkpt>
      <trkpt lat="43.83114" lon="4.93505">
        <ele>57.34</ele>
        <time>2017-09-25T07:49:22Z</time>
      </trkpt>
      <trkpt lat="43.83119" lon="4.93503">
        <ele>56.86</ele>
        <time>2017-09-25T07:49:23Z</time>
      </trkpt>
      <trkpt lat="43.83123" lon="4.93501">
        <ele>56.86</ele>
        <time>2017-09-25T07:49:24Z</time>
      </trkpt>
      <trkpt lat="43.83203" lon="4.93462">
        <ele>54.45</ele>
        <time>2017-09-25T07:49:42Z</time>
      </trkpt>
      <trkpt lat="43.8322" lon="4.93453">
        <ele>54.45</ele>
        <time>2017-09-25T07:49:46Z</time>
      </trkpt>
      <trkpt lat="43.83223" lon="4.93449">
        <ele>53.97</ele>
        <time>2017-09-25T07:49:47Z</time>
      </trkpt>
      <trkpt lat="43.83225" lon="4.93444">
        <ele>53.97</ele>
        <time>2017-09-25T07:49:48Z</time>
      </trkpt>
      <trkpt lat="43.83226" lon="4.93439">
        <ele>53.97</ele>
        <time>2017-09-25T07:49:49Z</time>
      </trkpt>
      <trkpt lat="43.83226" lon="4.93433">
        <ele>53.49</ele>
        <time>2017-09-25T07:49:50Z</time>
      </trkpt>
      <trkpt lat="43.83226" lon="4.93428">
        <ele>53.49</ele>
        <time>2017-09-25T07:49:51Z</time>
      </trkpt>
      <trkpt lat="43.83228" lon="4.93424">
        <ele>53.01</ele>
        <time>2017-09-25T07:49:52Z</time>
      </trkpt>
      <trkpt lat="43.83232" lon="4.9342">
        <ele>53.01</ele>
        <time>2017-09-25T07:49:53Z</time>
      </trkpt>
      <trkpt lat="43.83236" lon="4.93418">
        <ele>53.01</ele>
        <time>2017-09-25T07:49:54Z</time>
      </trkpt>
      <trkpt lat="43.8324" lon="4.93415">
        <ele>53.01</ele>
        <time>2017-09-25T07:49:55Z</time>
      </trkpt>
      <trkpt lat="43.83329" lon="4.93365">
        <ele>53.97</ele>
        <time>2017-09-25T07:50:15Z</time>
      </trkpt>
      <trkpt lat="43.83359" lon="4.93349">
        <ele>55.41</ele>
        <time>2017-09-25T07:50:22Z</time>
      </trkpt>
      <trkpt lat="43.83416" lon="4.93317">
        <ele>55.41</ele>
        <time>2017-09-25T07:50:35Z</time>
      </trkpt>
      <trkpt lat="43.83421" lon="4.93314">
        <ele>55.41</ele>
        <time>2017-09-25T07:50:36Z</time>
      </trkpt>
      <trkpt lat="43.83472" lon="4.93285">
        <ele>53.01</ele>
        <time>2017-09-25T07:50:49Z</time>
      </trkpt>
      <trkpt lat="43.83489" lon="4.93257">
        <ele>52.05</ele>
        <time>2017-09-25T07:50:57Z</time>
      </trkpt>
      <trkpt lat="43.83488" lon="4.93253">
        <ele>51.57</ele>
        <time>2017-09-25T07:50:58Z</time>
      </trkpt>
      <trkpt lat="43.83487" lon="4.93248">
        <ele>52.05</ele>
        <time>2017-09-25T07:50:59Z</time>
      </trkpt>
      <trkpt lat="43.83486" lon="4.93244">
        <ele>52.05</ele>
        <time>2017-09-25T07:51:00Z</time>
      </trkpt>
      <trkpt lat="43.83484" lon="4.93239">
        <ele>52.53</ele>
        <time>2017-09-25T07:51:01Z</time>
      </trkpt>
      <trkpt lat="43.83482" lon="4.93232">
        <ele>52.53</ele>
        <time>2017-09-25T07:51:02Z</time>
      </trkpt>
      <trkpt lat="43.83441" lon="4.93115">
        <ele>55.89</ele>
        <time>2017-09-25T07:51:22Z</time>
      </trkpt>
      <trkpt lat="43.8341" lon="4.92986">
        <ele>56.86</ele>
        <time>2017-09-25T07:51:43Z</time>
      </trkpt>
      <trkpt lat="43.83394" lon="4.92919">
        <ele>56.37</ele>
        <time>2017-09-25T07:51:56Z</time>
      </trkpt>
      <trkpt lat="43.83389" lon="4.92897">
        <ele>55.89</ele>
        <time>2017-09-25T07:52:03Z</time>
      </trkpt>
      <trkpt lat="43.8339" lon="4.92895">
        <ele>55.89</ele>
        <time>2017-09-25T07:52:04Z</time>
      </trkpt>
      <trkpt lat="43.83392" lon="4.92893">
        <ele>55.41</ele>
        <time>2017-09-25T07:52:05Z</time>
      </trkpt>
      <trkpt lat="43.83394" lon="4.92892">
        <ele>55.41</ele>
        <time>2017-09-25T07:52:06Z</time>
      </trkpt>
      <trkpt lat="43.83397" lon="4.9289">
        <ele>54.93</ele>
        <time>2017-09-25T07:52:07Z</time>
      </trkpt>
      <trkpt lat="43.834" lon="4.92889">
        <ele>54.45</ele>
        <time>2017-09-25T07:52:08Z</time>
      </trkpt>
      <trkpt lat="43.83402" lon="4.92887">
        <ele>53.97</ele>
        <time>2017-09-25T07:52:09Z</time>
      </trkpt>
      <trkpt lat="43.83426" lon="4.92866">
        <ele>52.05</ele>
        <time>2017-09-25T07:52:17Z</time>
      </trkpt>
      <trkpt lat="43.83426" lon="4.92862">
        <ele>51.57</ele>
        <time>2017-09-25T07:52:18Z</time>
      </trkpt>
      <trkpt lat="43.83425" lon="4.92858">
        <ele>51.09</ele>
        <time>2017-09-25T07:52:19Z</time>
      </trkpt>
      <trkpt lat="43.83423" lon="4.92854">
        <ele>50.61</ele>
        <time>2017-09-25T07:52:20Z</time>
      </trkpt>
      <trkpt lat="43.83422" lon="4.92849">
        <ele>50.13</ele>
        <time>2017-09-25T07:52:21Z</time>
      </trkpt>
      <trkpt lat="43.83397" lon="4.92769">
        <ele>48.68</ele>
        <time>2017-09-25T07:52:35Z</time>
      </trkpt>
      <trkpt lat="43.83392" lon="4.92757">
        <ele>49.16</ele>
        <time>2017-09-25T07:52:37Z</time>
      </trkpt>
      <trkpt lat="43.83366" lon="4.92676">
        <ele>51.57</ele>
        <time>2017-09-25T07:52:51Z</time>
      </trkpt>
      <trkpt lat="43.83352" lon="4.92586">
        <ele>53.01</ele>
        <time>2017-09-25T07:53:05Z</time>
      </trkpt>
      <trkpt lat="43.83348" lon="4.92497">
        <ele>52.05</ele>
        <time>2017-09-25T07:53:20Z</time>
      </trkpt>
      <trkpt lat="43.8333" lon="4.92408">
        <ele>51.57</ele>
        <time>2017-09-25T07:53:34Z</time>
      </trkpt>
      <trkpt lat="43.8331" lon="4.92326">
        <ele>44.84</ele>
        <time>2017-09-25T07:53:48Z</time>
      </trkpt>
      <trkpt lat="43.83306" lon="4.92308">
        <ele>42.92</ele>
        <time>2017-09-25T07:53:51Z</time>
      </trkpt>
      <trkpt lat="43.83304" lon="4.92303">
        <ele>42.44</ele>
        <time>2017-09-25T07:53:52Z</time>
      </trkpt>
      <trkpt lat="43.83303" lon="4.92299">
        <ele>42.44</ele>
        <time>2017-09-25T07:53:53Z</time>
      </trkpt>
      <trkpt lat="43.83302" lon="4.92296">
        <ele>41.95</ele>
        <time>2017-09-25T07:53:54Z</time>
      </trkpt>
      <trkpt lat="43.83301" lon="4.92292">
        <ele>41.95</ele>
        <time>2017-09-25T07:53:55Z</time>
      </trkpt>
      <trkpt lat="43.83276" lon="4.92244">
        <ele>40.51</ele>
        <time>2017-09-25T07:54:05Z</time>
      </trkpt>
      <trkpt lat="43.83217" lon="4.92155">
        <ele>48.2</ele>
        <time>2017-09-25T07:54:20Z</time>
      </trkpt>
      <trkpt lat="43.83171" lon="4.92089">
        <ele>48.68</ele>
        <time>2017-09-25T07:54:34Z</time>
      </trkpt>
      <trkpt lat="43.8314" lon="4.92006">
        <ele>50.61</ele>
        <time>2017-09-25T07:54:47Z</time>
      </trkpt>
      <trkpt lat="43.83108" lon="4.91882">
        <ele>52.05</ele>
        <time>2017-09-25T07:55:02Z</time>
      </trkpt>
      <trkpt lat="43.83098" lon="4.91848">
        <ele>52.05</ele>
        <time>2017-09-25T07:55:07Z</time>
      </trkpt>
      <trkpt lat="43.83098" lon="4.91842">
        <ele>52.05</ele>
        <time>2017-09-25T07:55:08Z</time>
      </trkpt>
      <trkpt lat="43.831" lon="4.91838">
        <ele>51.57</ele>
        <time>2017-09-25T07:55:09Z</time>
      </trkpt>
      <trkpt lat="43.83103" lon="4.91836">
        <ele>51.57</ele>
        <time>2017-09-25T07:55:10Z</time>
      </trkpt>
      <trkpt lat="43.83107" lon="4.91835">
        <ele>51.09</ele>
        <time>2017-09-25T07:55:11Z</time>
      </trkpt>
      <trkpt lat="43.83112" lon="4.91835">
        <ele>50.61</ele>
        <time>2017-09-25T07:55:12Z</time>
      </trkpt>
      <trkpt lat="43.83178" lon="4.91821">
        <ele>49.65</ele>
        <time>2017-09-25T07:55:23Z</time>
      </trkpt>
      <trkpt lat="43.83256" lon="4.91808">
        <ele>50.13</ele>
        <time>2017-09-25T07:55:37Z</time>
      </trkpt>
      <trkpt lat="43.83321" lon="4.91795">
        <ele>50.13</ele>
        <time>2017-09-25T07:55:51Z</time>
      </trkpt>
      <trkpt lat="43.83395" lon="4.91781">
        <ele>49.16</ele>
        <time>2017-09-25T07:56:07Z</time>
      </trkpt>
      <trkpt lat="43.8345" lon="4.9177">
        <ele>51.09</ele>
        <time>2017-09-25T07:56:21Z</time>
      </trkpt>
      <trkpt lat="43.83484" lon="4.91761">
        <ele>53.01</ele>
        <time>2017-09-25T07:56:34Z</time>
      </trkpt>
      <trkpt lat="43.83484" lon="4.91761">
        <ele>51.57</ele>
        <time>2017-09-25T07:56:48Z</time>
      </trkpt>
      <trkpt lat="43.83484" lon="4.9176">
        <ele>50.61</ele>
        <time>2017-09-25T07:57:16Z</time>
      </trkpt>
      <trkpt lat="43.83484" lon="4.91759">
        <ele>50.13</ele>
        <time>2017-09-25T07:57:44Z</time>
      </trkpt>
      <trkpt lat="43.83485" lon="4.91762">
        <ele>52.05</ele>
        <time>2017-09-25T07:58:14Z</time>
      </trkpt>
      <trkpt lat="43.83485" lon="4.91763">
        <ele>51.57</ele>
        <time>2017-09-25T07:58:42Z</time>
      </trkpt>
      <trkpt lat="43.83485" lon="4.91759">
        <ele>50.13</ele>
        <time>2017-09-25T07:59:12Z</time>
      </trkpt>
      <trkpt lat="43.83485" lon="4.91763">
        <ele>49.65</ele>
        <time>2017-09-25T07:59:45Z</time>
      </trkpt>
      <trkpt lat="43.83487" lon="4.91761">
        <ele>51.57</ele>
        <time>2017-09-25T08:00:07Z</time>
      </trkpt>
      <trkpt lat="43.83486" lon="4.91759">
        <ele>49.65</ele>
        <time>2017-09-25T08:00:33Z</time>
      </trkpt>
      <trkpt lat="43.83488" lon="4.91757">
        <ele>48.2</ele>
        <time>2017-09-25T08:01:01Z</time>
      </trkpt>
      <trkpt lat="43.83486" lon="4.91757">
        <ele>46.76</ele>
        <time>2017-09-25T08:01:23Z</time>
      </trkpt>
      <trkpt lat="43.83487" lon="4.91756">
        <ele>48.68</ele>
        <time>2017-09-25T08:01:56Z</time>
      </trkpt>
      <trkpt lat="43.83486" lon="4.91759">
        <ele>48.68</ele>
        <time>2017-09-25T08:02:22Z</time>
      </trkpt>
      <trkpt lat="43.83487" lon="4.91761">
        <ele>50.13</ele>
        <time>2017-09-25T08:02:58Z</time>
      </trkpt>
      <trkpt lat="43.83487" lon="4.9176">
        <ele>48.68</ele>
        <time>2017-09-25T08:03:25Z</time>
      </trkpt>
      <trkpt lat="43.83489" lon="4.91762">
        <ele>48.2</ele>
        <time>2017-09-25T08:03:48Z</time>
      </trkpt>
      <trkpt lat="43.8349" lon="4.91763">
        <ele>48.2</ele>
        <time>2017-09-25T08:03:49Z</time>
      </trkpt>
      <trkpt lat="43.83491" lon="4.91763">
        <ele>48.2</ele>
        <time>2017-09-25T08:03:50Z</time>
      </trkpt>
      <trkpt lat="43.83492" lon="4.91763">
        <ele>48.2</ele>
        <time>2017-09-25T08:03:51Z</time>
      </trkpt>
      <trkpt lat="43.83493" lon="4.91763">
        <ele>48.2</ele>
        <time>2017-09-25T08:03:52Z</time>
      </trkpt>
      <trkpt lat="43.83501" lon="4.91762">
        <ele>49.16</ele>
        <time>2017-09-25T08:03:58Z</time>
      </trkpt>
      <trkpt lat="43.83526" lon="4.91755">
        <ele>49.65</ele>
        <time>2017-09-25T08:04:13Z</time>
      </trkpt>
      <trkpt lat="43.83534" lon="4.91756">
        <ele>50.13</ele>
        <time>2017-09-25T08:04:18Z</time>
      </trkpt>
      <trkpt lat="43.83535" lon="4.91755">
        <ele>49.65</ele>
        <time>2017-09-25T08:04:19Z</time>
      </trkpt>
      <trkpt lat="43.83535" lon="4.91754">
        <ele>49.65</ele>
        <time>2017-09-25T08:04:20Z</time>
      </trkpt>
      <trkpt lat="43.83526" lon="4.91754">
        <ele>48.68</ele>
        <time>2017-09-25T08:04:31Z</time>
      </trkpt>
      <trkpt lat="43.83523" lon="4.91753">
        <ele>49.16</ele>
        <time>2017-09-25T08:04:35Z</time>
      </trkpt>
      <trkpt lat="43.83516" lon="4.91755">
        <ele>50.13</ele>
        <time>2017-09-25T08:04:42Z</time>
      </trkpt>
      <trkpt lat="43.83515" lon="4.91756">
        <ele>50.13</ele>
        <time>2017-09-25T08:04:43Z</time>
      </trkpt>
      <trkpt lat="43.83516" lon="4.91758">
        <ele>50.13</ele>
        <time>2017-09-25T08:04:44Z</time>
      </trkpt>
      <trkpt lat="43.83517" lon="4.91759">
        <ele>50.13</ele>
        <time>2017-09-25T08:04:45Z</time>
      </trkpt>
      <trkpt lat="43.83518" lon="4.91759">
        <ele>49.65</ele>
        <time>2017-09-25T08:04:46Z</time>
      </trkpt>
      <trkpt lat="43.83531" lon="4.91756">
        <ele>50.13</ele>
        <time>2017-09-25T08:04:58Z</time>
      </trkpt>
      <trkpt lat="43.83546" lon="4.91754">
        <ele>51.09</ele>
        <time>2017-09-25T08:05:09Z</time>
      </trkpt>
      <trkpt lat="43.83567" lon="4.91749">
        <ele>49.65</ele>
        <time>2017-09-25T08:05:23Z</time>
      </trkpt>
      <trkpt lat="43.83592" lon="4.91743">
        <ele>50.13</ele>
        <time>2017-09-25T08:05:38Z</time>
      </trkpt>
      <trkpt lat="43.83622" lon="4.91741">
        <ele>52.05</ele>
        <time>2017-09-25T08:05:51Z</time>
      </trkpt>
      <trkpt lat="43.83661" lon="4.91732">
        <ele>49.65</ele>
        <time>2017-09-25T08:06:07Z</time>
      </trkpt>
      <trkpt lat="43.83694" lon="4.91726">
        <ele>50.61</ele>
        <time>2017-09-25T08:06:22Z</time>
      </trkpt>
      <trkpt lat="43.83726" lon="4.91721">
        <ele>50.61</ele>
        <time>2017-09-25T08:06:37Z</time>
      </trkpt>
      <trkpt lat="43.83776" lon="4.9171">
        <ele>48.68</ele>
        <time>2017-09-25T08:06:54Z</time>
      </trkpt>
      <trkpt lat="43.83817" lon="4.91701">
        <ele>48.68</ele>
        <time>2017-09-25T08:07:09Z</time>
      </trkpt>
      <trkpt lat="43.83853" lon="4.91694">
        <ele>49.65</ele>
        <time>2017-09-25T08:07:22Z</time>
      </trkpt>
      <trkpt lat="43.83899" lon="4.91683">
        <ele>49.16</ele>
        <time>2017-09-25T08:07:37Z</time>
      </trkpt>
      <trkpt lat="43.83917" lon="4.91681">
        <ele>49.65</ele>
        <time>2017-09-25T08:07:41Z</time>
      </trkpt>
      <trkpt lat="43.83921" lon="4.91682">
        <ele>49.65</ele>
        <time>2017-09-25T08:07:42Z</time>
      </trkpt>
      <trkpt lat="43.83924" lon="4.91684">
        <ele>49.65</ele>
        <time>2017-09-25T08:07:43Z</time>
      </trkpt>
      <trkpt lat="43.83957" lon="4.91689">
        <ele>49.16</ele>
        <time>2017-09-25T08:07:52Z</time>
      </trkpt>
      <trkpt lat="43.8399" lon="4.91742">
        <ele>48.2</ele>
        <time>2017-09-25T08:08:04Z</time>
      </trkpt>
      <trkpt lat="43.83997" lon="4.91759">
        <ele>48.2</ele>
        <time>2017-09-25T08:08:07Z</time>
      </trkpt>
      <trkpt lat="43.83998" lon="4.91764">
        <ele>48.2</ele>
        <time>2017-09-25T08:08:08Z</time>
      </trkpt>
      <trkpt lat="43.84002" lon="4.91778">
        <ele>48.2</ele>
        <time>2017-09-25T08:08:11Z</time>
      </trkpt>
      <trkpt lat="43.84005" lon="4.91781">
        <ele>48.2</ele>
        <time>2017-09-25T08:08:12Z</time>
      </trkpt>
      <trkpt lat="43.84009" lon="4.91782">
        <ele>47.72</ele>
        <time>2017-09-25T08:08:13Z</time>
      </trkpt>
      <trkpt lat="43.84013" lon="4.91782">
        <ele>47.72</ele>
        <time>2017-09-25T08:08:14Z</time>
      </trkpt>
      <trkpt lat="43.84016" lon="4.91779">
        <ele>47.24</ele>
        <time>2017-09-25T08:08:15Z</time>
      </trkpt>
      <trkpt lat="43.84018" lon="4.91774">
        <ele>46.76</ele>
        <time>2017-09-25T08:08:16Z</time>
      </trkpt>
      <trkpt lat="43.8402" lon="4.91769">
        <ele>47.24</ele>
        <time>2017-09-25T08:08:17Z</time>
      </trkpt>
      <trkpt lat="43.84022" lon="4.91764">
        <ele>47.24</ele>
        <time>2017-09-25T08:08:18Z</time>
      </trkpt>
      <trkpt lat="43.84024" lon="4.91758">
        <ele>47.24</ele>
        <time>2017-09-25T08:08:19Z</time>
      </trkpt>
      <trkpt lat="43.84027" lon="4.91753">
        <ele>47.72</ele>
        <time>2017-09-25T08:08:20Z</time>
      </trkpt>
      <trkpt lat="43.84062" lon="4.91671">
        <ele>50.13</ele>
        <time>2017-09-25T08:08:35Z</time>
      </trkpt>
      <trkpt lat="43.84098" lon="4.91576">
        <ele>49.16</ele>
        <time>2017-09-25T08:08:52Z</time>
      </trkpt>
      <trkpt lat="43.84103" lon="4.91566">
        <ele>48.68</ele>
        <time>2017-09-25T08:08:54Z</time>
      </trkpt>
      <trkpt lat="43.84111" lon="4.91551">
        <ele>49.16</ele>
        <time>2017-09-25T08:08:57Z</time>
      </trkpt>
      <trkpt lat="43.84115" lon="4.91547">
        <ele>49.16</ele>
        <time>2017-09-25T08:08:58Z</time>
      </trkpt>
      <trkpt lat="43.84122" lon="4.91539">
        <ele>48.68</ele>
        <time>2017-09-25T08:09:00Z</time>
      </trkpt>
      <trkpt lat="43.8413" lon="4.91531">
        <ele>48.68</ele>
        <time>2017-09-25T08:09:02Z</time>
      </trkpt>
      <trkpt lat="43.84135" lon="4.91527">
        <ele>49.16</ele>
        <time>2017-09-25T08:09:03Z</time>
      </trkpt>
      <trkpt lat="43.84191" lon="4.91482">
        <ele>50.13</ele>
        <time>2017-09-25T08:09:17Z</time>
      </trkpt>
      <trkpt lat="43.84209" lon="4.91462">
        <ele>50.61</ele>
        <time>2017-09-25T08:09:22Z</time>
      </trkpt>
      <trkpt lat="43.84249" lon="4.91396">
        <ele>53.01</ele>
        <time>2017-09-25T08:09:36Z</time>
      </trkpt>
      <trkpt lat="43.84253" lon="4.91392">
        <ele>53.01</ele>
        <time>2017-09-25T08:09:37Z</time>
      </trkpt>
      <trkpt lat="43.84334" lon="4.91316">
        <ele>49.65</ele>
        <time>2017-09-25T08:09:57Z</time>
      </trkpt>
      <trkpt lat="43.84377" lon="4.91275">
        <ele>48.68</ele>
        <time>2017-09-25T08:10:08Z</time>
      </trkpt>
      <trkpt lat="43.84448" lon="4.91212">
        <ele>47.72</ele>
        <time>2017-09-25T08:10:26Z</time>
      </trkpt>
      <trkpt lat="43.84522" lon="4.91146">
        <ele>48.2</ele>
        <time>2017-09-25T08:10:45Z</time>
      </trkpt>
      <trkpt lat="43.84526" lon="4.91143">
        <ele>48.68</ele>
        <time>2017-09-25T08:10:46Z</time>
      </trkpt>
      <trkpt lat="43.8457" lon="4.91104">
        <ele>48.68</ele>
        <time>2017-09-25T08:11:00Z</time>
      </trkpt>
      <trkpt lat="43.84583" lon="4.91065">
        <ele>49.16</ele>
        <time>2017-09-25T08:11:13Z</time>
      </trkpt>
      <trkpt lat="43.84586" lon="4.9106">
        <ele>48.2</ele>
        <time>2017-09-25T08:11:29Z</time>
      </trkpt>
      <trkpt lat="43.84584" lon="4.91061">
        <ele>49.65</ele>
        <time>2017-09-25T08:11:58Z</time>
      </trkpt>
      <trkpt lat="43.84584" lon="4.91065">
        <ele>53.49</ele>
        <time>2017-09-25T08:12:40Z</time>
      </trkpt>
      <trkpt lat="43.84586" lon="4.91065">
        <ele>50.61</ele>
        <time>2017-09-25T08:13:24Z</time>
      </trkpt>
      <trkpt lat="43.84588" lon="4.91061">
        <ele>51.09</ele>
        <time>2017-09-25T08:13:57Z</time>
      </trkpt>
      <trkpt lat="43.84587" lon="4.91065">
        <ele>50.13</ele>
        <time>2017-09-25T08:14:24Z</time>
      </trkpt>
      <trkpt lat="43.84584" lon="4.91069">
        <ele>54.93</ele>
        <time>2017-09-25T08:15:02Z</time>
      </trkpt>
      <trkpt lat="43.84585" lon="4.91071">
        <ele>54.45</ele>
        <time>2017-09-25T08:15:15Z</time>
      </trkpt>
      <trkpt lat="43.84579" lon="4.91083">
        <ele>49.16</ele>
        <time>2017-09-25T08:15:24Z</time>
      </trkpt>
      <trkpt lat="43.84599" lon="4.91094">
        <ele>45.8</ele>
        <time>2017-09-25T08:15:34Z</time>
      </trkpt>
      <trkpt lat="43.84621" lon="4.91044">
        <ele>46.28</ele>
        <time>2017-09-25T08:15:48Z</time>
      </trkpt>
      <trkpt lat="43.84635" lon="4.90996">
        <ele>47.24</ele>
        <time>2017-09-25T08:16:01Z</time>
      </trkpt>
      <trkpt lat="43.84651" lon="4.9096">
        <ele>47.24</ele>
        <time>2017-09-25T08:16:14Z</time>
      </trkpt>
      <trkpt lat="43.84675" lon="4.90929">
        <ele>47.24</ele>
        <time>2017-09-25T08:16:26Z</time>
      </trkpt>
      <trkpt lat="43.84686" lon="4.90918">
        <ele>46.28</ele>
        <time>2017-09-25T08:16:34Z</time>
      </trkpt>
      <trkpt lat="43.84703" lon="4.90894">
        <ele>46.76</ele>
        <time>2017-09-25T08:16:47Z</time>
      </trkpt>
      <trkpt lat="43.84707" lon="4.90888">
        <ele>45.8</ele>
        <time>2017-09-25T08:17:00Z</time>
      </trkpt>
      <trkpt lat="43.84713" lon="4.90877">
        <ele>46.28</ele>
        <time>2017-09-25T08:17:15Z</time>
      </trkpt>
      <trkpt lat="43.84725" lon="4.9086">
        <ele>46.28</ele>
        <time>2017-09-25T08:17:24Z</time>
      </trkpt>
      <trkpt lat="43.8473" lon="4.90859">
        <ele>45.8</ele>
        <time>2017-09-25T08:17:28Z</time>
      </trkpt>
      <trkpt lat="43.84726" lon="4.90872">
        <ele>44.84</ele>
        <time>2017-09-25T08:17:36Z</time>
      </trkpt>
      <trkpt lat="43.84712" lon="4.90893">
        <ele>43.88</ele>
        <time>2017-09-25T08:17:46Z</time>
      </trkpt>
      <trkpt lat="43.84691" lon="4.90925">
        <ele>44.36</ele>
        <time>2017-09-25T08:17:59Z</time>
      </trkpt>
      <trkpt lat="43.84685" lon="4.90932">
        <ele>44.36</ele>
        <time>2017-09-25T08:18:02Z</time>
      </trkpt>
      <trkpt lat="43.84678" lon="4.9093">
        <ele>44.84</ele>
        <time>2017-09-25T08:18:06Z</time>
      </trkpt>
      <trkpt lat="43.84676" lon="4.90926">
        <ele>44.84</ele>
        <time>2017-09-25T08:18:08Z</time>
      </trkpt>
      <trkpt lat="43.84674" lon="4.90927">
        <ele>45.32</ele>
        <time>2017-09-25T08:18:12Z</time>
      </trkpt>
      <trkpt lat="43.84687" lon="4.90934">
        <ele>44.84</ele>
        <time>2017-09-25T08:18:26Z</time>
      </trkpt>
      <trkpt lat="43.8471" lon="4.909">
        <ele>45.8</ele>
        <time>2017-09-25T08:18:38Z</time>
      </trkpt>
      <trkpt lat="43.84729" lon="4.90867">
        <ele>45.8</ele>
        <time>2017-09-25T08:18:51Z</time>
      </trkpt>
      <trkpt lat="43.84729" lon="4.90856">
        <ele>46.76</ele>
        <time>2017-09-25T08:19:04Z</time>
      </trkpt>
      <trkpt lat="43.84729" lon="4.90853">
        <ele>47.24</ele>
        <time>2017-09-25T08:19:12Z</time>
      </trkpt>
      <trkpt lat="43.84733" lon="4.90847">
        <ele>47.24</ele>
        <time>2017-09-25T08:19:16Z</time>
      </trkpt>
      <trkpt lat="43.84752" lon="4.90816">
        <ele>45.32</ele>
        <time>2017-09-25T08:19:27Z</time>
      </trkpt>
      <trkpt lat="43.84772" lon="4.90781">
        <ele>46.28</ele>
        <time>2017-09-25T08:19:38Z</time>
      </trkpt>
      <trkpt lat="43.84795" lon="4.90746">
        <ele>48.2</ele>
        <time>2017-09-25T08:19:51Z</time>
      </trkpt>
      <trkpt lat="43.84815" lon="4.90712">
        <ele>48.2</ele>
        <time>2017-09-25T08:20:02Z</time>
      </trkpt>
      <trkpt lat="43.84848" lon="4.90662">
        <ele>47.72</ele>
        <time>2017-09-25T08:20:14Z</time>
      </trkpt>
      <trkpt lat="43.84887" lon="4.90591">
        <ele>49.16</ele>
        <time>2017-09-25T08:20:29Z</time>
      </trkpt>
      <trkpt lat="43.8489" lon="4.90587">
        <ele>49.16</ele>
        <time>2017-09-25T08:20:30Z</time>
      </trkpt>
      <trkpt lat="43.84904" lon="4.90565">
        <ele>49.16</ele>
        <time>2017-09-25T08:20:35Z</time>
      </trkpt>
      <trkpt lat="43.84925" lon="4.90517">
        <ele>46.76</ele>
        <time>2017-09-25T08:20:45Z</time>
      </trkpt>
      <trkpt lat="43.84939" lon="4.905">
        <ele>46.28</ele>
        <time>2017-09-25T08:20:49Z</time>
      </trkpt>
      <trkpt lat="43.84989" lon="4.90455">
        <ele>47.24</ele>
        <time>2017-09-25T08:21:04Z</time>
      </trkpt>
      <trkpt lat="43.84997" lon="4.90446">
        <ele>46.28</ele>
        <time>2017-09-25T08:21:10Z</time>
      </trkpt>
      <trkpt lat="43.84997" lon="4.9044">
        <ele>45.32</ele>
        <time>2017-09-25T08:21:21Z</time>
      </trkpt>
      <trkpt lat="43.84996" lon="4.90441">
        <ele>45.32</ele>
        <time>2017-09-25T08:21:23Z</time>
      </trkpt>
      <trkpt lat="43.84998" lon="4.90452">
        <ele>44.84</ele>
        <time>2017-09-25T08:21:30Z</time>
      </trkpt>
      <trkpt lat="43.85022" lon="4.90501">
        <ele>45.8</ele>
        <time>2017-09-25T08:21:44Z</time>
      </trkpt>
      <trkpt lat="43.85023" lon="4.90528">
        <ele>45.8</ele>
        <time>2017-09-25T08:21:52Z</time>
      </trkpt>
      <trkpt lat="43.85024" lon="4.90534">
        <ele>46.28</ele>
        <time>2017-09-25T08:22:01Z</time>
      </trkpt>
      <trkpt lat="43.85024" lon="4.90533">
        <ele>46.28</ele>
        <time>2017-09-25T08:22:02Z</time>
      </trkpt>
      <trkpt lat="43.8502" lon="4.90494">
        <ele>45.8</ele>
        <time>2017-09-25T08:22:13Z</time>
      </trkpt>
      <trkpt lat="43.84999" lon="4.90451">
        <ele>44.84</ele>
        <time>2017-09-25T08:22:26Z</time>
      </trkpt>
      <trkpt lat="43.85007" lon="4.90441">
        <ele>45.32</ele>
        <time>2017-09-25T08:22:31Z</time>
      </trkpt>
      <trkpt lat="43.85041" lon="4.90421">
        <ele>46.28</ele>
        <time>2017-09-25T08:22:45Z</time>
      </trkpt>
      <trkpt lat="43.85059" lon="4.90413">
        <ele>47.24</ele>
        <time>2017-09-25T08:22:51Z</time>
      </trkpt>
      <trkpt lat="43.85061" lon="4.90407">
        <ele>49.16</ele>
        <time>2017-09-25T08:23:01Z</time>
      </trkpt>
      <trkpt lat="43.85058" lon="4.90407">
        <ele>49.16</ele>
        <time>2017-09-25T08:23:05Z</time>
      </trkpt>
      <trkpt lat="43.85029" lon="4.90423">
        <ele>49.16</ele>
        <time>2017-09-25T08:23:18Z</time>
      </trkpt>
      <trkpt lat="43.85001" lon="4.90441">
        <ele>47.72</ele>
        <time>2017-09-25T08:23:29Z</time>
      </trkpt>
      <trkpt lat="43.84994" lon="4.90429">
        <ele>46.76</ele>
        <time>2017-09-25T08:23:34Z</time>
      </trkpt>
      <trkpt lat="43.84987" lon="4.90342">
        <ele>46.28</ele>
        <time>2017-09-25T08:23:50Z</time>
      </trkpt>
      <trkpt lat="43.84998" lon="4.903">
        <ele>45.8</ele>
        <time>2017-09-25T08:24:01Z</time>
      </trkpt>
      <trkpt lat="43.85049" lon="4.90268">
        <ele>45.8</ele>
        <time>2017-09-25T08:24:14Z</time>
      </trkpt>
      <trkpt lat="43.85104" lon="4.9023">
        <ele>45.8</ele>
        <time>2017-09-25T08:24:27Z</time>
      </trkpt>
      <trkpt lat="43.85122" lon="4.90212">
        <ele>46.28</ele>
        <time>2017-09-25T08:24:34Z</time>
      </trkpt>
      <trkpt lat="43.85124" lon="4.90212">
        <ele>46.28</ele>
        <time>2017-09-25T08:24:35Z</time>
      </trkpt>
      <trkpt lat="43.85135" lon="4.90205">
        <ele>46.76</ele>
        <time>2017-09-25T08:24:40Z</time>
      </trkpt>
      <trkpt lat="43.85136" lon="4.902">
        <ele>46.76</ele>
        <time>2017-09-25T08:24:41Z</time>
      </trkpt>
      <trkpt lat="43.85136" lon="4.90195">
        <ele>47.24</ele>
        <time>2017-09-25T08:24:42Z</time>
      </trkpt>
      <trkpt lat="43.85135" lon="4.90182">
        <ele>47.24</ele>
        <time>2017-09-25T08:24:44Z</time>
      </trkpt>
      <trkpt lat="43.85125" lon="4.90072">
        <ele>48.68</ele>
        <time>2017-09-25T08:25:01Z</time>
      </trkpt>
      <trkpt lat="43.85123" lon="4.90034">
        <ele>48.68</ele>
        <time>2017-09-25T08:25:07Z</time>
      </trkpt>
      <trkpt lat="43.85124" lon="4.90028">
        <ele>48.68</ele>
        <time>2017-09-25T08:25:08Z</time>
      </trkpt>
      <trkpt lat="43.85125" lon="4.90022">
        <ele>48.68</ele>
        <time>2017-09-25T08:25:09Z</time>
      </trkpt>
      <trkpt lat="43.85128" lon="4.90017">
        <ele>48.68</ele>
        <time>2017-09-25T08:25:10Z</time>
      </trkpt>
      <trkpt lat="43.8513" lon="4.90011">
        <ele>48.2</ele>
        <time>2017-09-25T08:25:11Z</time>
      </trkpt>
      <trkpt lat="43.85145" lon="4.8999">
        <ele>47.72</ele>
        <time>2017-09-25T08:25:16Z</time>
      </trkpt>
      <trkpt lat="43.85187" lon="4.89917">
        <ele>44.84</ele>
        <time>2017-09-25T08:25:31Z</time>
      </trkpt>
      <trkpt lat="43.85215" lon="4.89875">
        <ele>43.88</ele>
        <time>2017-09-25T08:25:40Z</time>
      </trkpt>
      <trkpt lat="43.85263" lon="4.89822">
        <ele>43.4</ele>
        <time>2017-09-25T08:25:53Z</time>
      </trkpt>
      <trkpt lat="43.85337" lon="4.89737">
        <ele>42.44</ele>
        <time>2017-09-25T08:26:13Z</time>
      </trkpt>
      <trkpt lat="43.8537" lon="4.89697">
        <ele>44.36</ele>
        <time>2017-09-25T08:26:25Z</time>
      </trkpt>
      <trkpt lat="43.85351" lon="4.89618">
        <ele>44.36</ele>
        <time>2017-09-25T08:26:39Z</time>
      </trkpt>
      <trkpt lat="43.85337" lon="4.89557">
        <ele>44.36</ele>
        <time>2017-09-25T08:26:49Z</time>
      </trkpt>
      <trkpt lat="43.85336" lon="4.89552">
        <ele>44.36</ele>
        <time>2017-09-25T08:26:50Z</time>
      </trkpt>
      <trkpt lat="43.85335" lon="4.89546">
        <ele>44.36</ele>
        <time>2017-09-25T08:26:51Z</time>
      </trkpt>
      <trkpt lat="43.85324" lon="4.89516">
        <ele>44.36</ele>
        <time>2017-09-25T08:26:58Z</time>
      </trkpt>
      <trkpt lat="43.85321" lon="4.89515">
        <ele>44.36</ele>
        <time>2017-09-25T08:26:59Z</time>
      </trkpt>
      <trkpt lat="43.85317" lon="4.89515">
        <ele>44.36</ele>
        <time>2017-09-25T08:27:00Z</time>
      </trkpt>
      <trkpt lat="43.85313" lon="4.89516">
        <ele>44.36</ele>
        <time>2017-09-25T08:27:01Z</time>
      </trkpt>
      <trkpt lat="43.85309" lon="4.89517">
        <ele>44.84</ele>
        <time>2017-09-25T08:27:02Z</time>
      </trkpt>
      <trkpt lat="43.85271" lon="4.89532">
        <ele>43.88</ele>
        <time>2017-09-25T08:27:12Z</time>
      </trkpt>
      <trkpt lat="43.85269" lon="4.8953">
        <ele>43.88</ele>
        <time>2017-09-25T08:27:13Z</time>
      </trkpt>
      <trkpt lat="43.85268" lon="4.89528">
        <ele>43.88</ele>
        <time>2017-09-25T08:27:14Z</time>
      </trkpt>
      <trkpt lat="43.85268" lon="4.89525">
        <ele>43.88</ele>
        <time>2017-09-25T08:27:15Z</time>
      </trkpt>
      <trkpt lat="43.85267" lon="4.89523">
        <ele>43.88</ele>
        <time>2017-09-25T08:27:16Z</time>
      </trkpt>
      <trkpt lat="43.85267" lon="4.89521">
        <ele>43.88</ele>
        <time>2017-09-25T08:27:17Z</time>
      </trkpt>
      <trkpt lat="43.85258" lon="4.89464">
        <ele>43.88</ele>
        <time>2017-09-25T08:27:29Z</time>
      </trkpt>
      <trkpt lat="43.85244" lon="4.8939">
        <ele>45.32</ele>
        <time>2017-09-25T08:27:44Z</time>
      </trkpt>
      <trkpt lat="43.85243" lon="4.89384">
        <ele>45.32</ele>
        <time>2017-09-25T08:27:45Z</time>
      </trkpt>
      <trkpt lat="43.8524" lon="4.89372">
        <ele>45.32</ele>
        <time>2017-09-25T08:27:47Z</time>
      </trkpt>
      <trkpt lat="43.85233" lon="4.89336">
        <ele>44.84</ele>
        <time>2017-09-25T08:27:53Z</time>
      </trkpt>
      <trkpt lat="43.85232" lon="4.8933">
        <ele>44.84</ele>
        <time>2017-09-25T08:27:54Z</time>
      </trkpt>
      <trkpt lat="43.85224" lon="4.89293">
        <ele>44.84</ele>
        <time>2017-09-25T08:28:06Z</time>
      </trkpt>
      <trkpt lat="43.85222" lon="4.89294">
        <ele>44.84</ele>
        <time>2017-09-25T08:28:07Z</time>
      </trkpt>
      <trkpt lat="43.8522" lon="4.89295">
        <ele>45.32</ele>
        <time>2017-09-25T08:28:08Z</time>
      </trkpt>
      <trkpt lat="43.85187" lon="4.89301">
        <ele>45.8</ele>
        <time>2017-09-25T08:28:17Z</time>
      </trkpt>
      <trkpt lat="43.85115" lon="4.89318">
        <ele>45.32</ele>
        <time>2017-09-25T08:28:33Z</time>
      </trkpt>
      <trkpt lat="43.85045" lon="4.89334">
        <ele>44.84</ele>
        <time>2017-09-25T08:28:48Z</time>
      </trkpt>
      <trkpt lat="43.84964" lon="4.89352">
        <ele>46.28</ele>
        <time>2017-09-25T08:29:06Z</time>
      </trkpt>
      <trkpt lat="43.84929" lon="4.89361">
        <ele>47.24</ele>
        <time>2017-09-25T08:29:14Z</time>
      </trkpt>
      <trkpt lat="43.84911" lon="4.89364">
        <ele>48.2</ele>
        <time>2017-09-25T08:29:18Z</time>
      </trkpt>
      <trkpt lat="43.84907" lon="4.89365">
        <ele>48.2</ele>
        <time>2017-09-25T08:29:19Z</time>
      </trkpt>
      <trkpt lat="43.84858" lon="4.89379">
        <ele>49.16</ele>
        <time>2017-09-25T08:29:30Z</time>
      </trkpt>
      <trkpt lat="43.84853" lon="4.8938">
        <ele>49.16</ele>
        <time>2017-09-25T08:29:31Z</time>
      </trkpt>
      <trkpt lat="43.8479" lon="4.89397">
        <ele>50.61</ele>
        <time>2017-09-25T08:29:45Z</time>
      </trkpt>
      <trkpt lat="43.84701" lon="4.8942">
        <ele>47.24</ele>
        <time>2017-09-25T08:30:04Z</time>
      </trkpt>
      <trkpt lat="43.84614" lon="4.89441">
        <ele>46.76</ele>
        <time>2017-09-25T08:30:23Z</time>
      </trkpt>
      <trkpt lat="43.84522" lon="4.89465">
        <ele>47.72</ele>
        <time>2017-09-25T08:30:43Z</time>
      </trkpt>
      <trkpt lat="43.84423" lon="4.89488">
        <ele>47.72</ele>
        <time>2017-09-25T08:31:05Z</time>
      </trkpt>
      <trkpt lat="43.84365" lon="4.89501">
        <ele>46.76</ele>
        <time>2017-09-25T08:31:20Z</time>
      </trkpt>
      <trkpt lat="43.84344" lon="4.89511">
        <ele>46.28</ele>
        <time>2017-09-25T08:31:26Z</time>
      </trkpt>
      <trkpt lat="43.8434" lon="4.89516">
        <ele>46.28</ele>
        <time>2017-09-25T08:31:27Z</time>
      </trkpt>
      <trkpt lat="43.84337" lon="4.89521">
        <ele>46.28</ele>
        <time>2017-09-25T08:31:28Z</time>
      </trkpt>
      <trkpt lat="43.84336" lon="4.89527">
        <ele>46.28</ele>
        <time>2017-09-25T08:31:29Z</time>
      </trkpt>
      <trkpt lat="43.84334" lon="4.89534">
        <ele>46.28</ele>
        <time>2017-09-25T08:31:30Z</time>
      </trkpt>
      <trkpt lat="43.84333" lon="4.89541">
        <ele>46.28</ele>
        <time>2017-09-25T08:31:31Z</time>
      </trkpt>
      <trkpt lat="43.84333" lon="4.89548">
        <ele>46.28</ele>
        <time>2017-09-25T08:31:32Z</time>
      </trkpt>
      <trkpt lat="43.84333" lon="4.89555">
        <ele>46.28</ele>
        <time>2017-09-25T08:31:33Z</time>
      </trkpt>
      <trkpt lat="43.84327" lon="4.89648">
        <ele>45.8</ele>
        <time>2017-09-25T08:31:46Z</time>
      </trkpt>
      <trkpt lat="43.84321" lon="4.89735">
        <ele>50.13</ele>
        <time>2017-09-25T08:32:01Z</time>
      </trkpt>
      <trkpt lat="43.84312" lon="4.89769">
        <ele>53.49</ele>
        <time>2017-09-25T08:32:10Z</time>
      </trkpt>
      <trkpt lat="43.84309" lon="4.89769">
        <ele>53.49</ele>
        <time>2017-09-25T08:32:11Z</time>
      </trkpt>
      <trkpt lat="43.84307" lon="4.89769">
        <ele>53.97</ele>
        <time>2017-09-25T08:32:12Z</time>
      </trkpt>
      <trkpt lat="43.84264" lon="4.89767">
        <ele>54.45</ele>
        <time>2017-09-25T08:32:22Z</time>
      </trkpt>
      <trkpt lat="43.84196" lon="4.89768">
        <ele>52.05</ele>
        <time>2017-09-25T08:32:37Z</time>
      </trkpt>
      <trkpt lat="43.84153" lon="4.89767">
        <ele>50.13</ele>
        <time>2017-09-25T08:32:46Z</time>
      </trkpt>
      <trkpt lat="43.84149" lon="4.89768">
        <ele>50.13</ele>
        <time>2017-09-25T08:32:47Z</time>
      </trkpt>
      <trkpt lat="43.84099" lon="4.89767">
        <ele>48.68</ele>
        <time>2017-09-25T08:32:58Z</time>
      </trkpt>
      <trkpt lat="43.8403" lon="4.89764">
        <ele>47.72</ele>
        <time>2017-09-25T08:33:13Z</time>
      </trkpt>
      <trkpt lat="43.83963" lon="4.89763">
        <ele>46.28</ele>
        <time>2017-09-25T08:33:27Z</time>
      </trkpt>
      <trkpt lat="43.83878" lon="4.89764">
        <ele>44.36</ele>
        <time>2017-09-25T08:33:45Z</time>
      </trkpt>
      <trkpt lat="43.83814" lon="4.89765">
        <ele>43.88</ele>
        <time>2017-09-25T08:33:59Z</time>
      </trkpt>
      <trkpt lat="43.83741" lon="4.89766">
        <ele>43.88</ele>
        <time>2017-09-25T08:34:15Z</time>
      </trkpt>
      <trkpt lat="43.83717" lon="4.89768">
        <ele>44.36</ele>
        <time>2017-09-25T08:34:20Z</time>
      </trkpt>
      <trkpt lat="43.83703" lon="4.89767">
        <ele>44.36</ele>
        <time>2017-09-25T08:34:23Z</time>
      </trkpt>
      <trkpt lat="43.83671" lon="4.8977">
        <ele>44.36</ele>
        <time>2017-09-25T08:34:30Z</time>
      </trkpt>
      <trkpt lat="43.83667" lon="4.89769">
        <ele>44.36</ele>
        <time>2017-09-25T08:34:31Z</time>
      </trkpt>
      <trkpt lat="43.83662" lon="4.89769">
        <ele>43.88</ele>
        <time>2017-09-25T08:34:32Z</time>
      </trkpt>
      <trkpt lat="43.836" lon="4.89771">
        <ele>42.92</ele>
        <time>2017-09-25T08:34:46Z</time>
      </trkpt>
      <trkpt lat="43.83596" lon="4.89771">
        <ele>43.4</ele>
        <time>2017-09-25T08:34:47Z</time>
      </trkpt>
      <trkpt lat="43.83591" lon="4.8977">
        <ele>43.4</ele>
        <time>2017-09-25T08:34:48Z</time>
      </trkpt>
      <trkpt lat="43.83521" lon="4.89751">
        <ele>44.36</ele>
        <time>2017-09-25T08:35:03Z</time>
      </trkpt>
      <trkpt lat="43.83434" lon="4.89726">
        <ele>44.36</ele>
        <time>2017-09-25T08:35:22Z</time>
      </trkpt>
      <trkpt lat="43.83395" lon="4.89716">
        <ele>45.8</ele>
        <time>2017-09-25T08:35:31Z</time>
      </trkpt>
      <trkpt lat="43.8339" lon="4.89715">
        <ele>45.8</ele>
        <time>2017-09-25T08:35:32Z</time>
      </trkpt>
      <trkpt lat="43.83317" lon="4.89694">
        <ele>45.8</ele>
        <time>2017-09-25T08:35:48Z</time>
      </trkpt>
      <trkpt lat="43.83268" lon="4.89687">
        <ele>45.32</ele>
        <time>2017-09-25T08:35:59Z</time>
      </trkpt>
      <trkpt lat="43.83264" lon="4.89689">
        <ele>45.32</ele>
        <time>2017-09-25T08:36:00Z</time>
      </trkpt>
      <trkpt lat="43.83261" lon="4.89691">
        <ele>45.32</ele>
        <time>2017-09-25T08:36:01Z</time>
      </trkpt>
      <trkpt lat="43.83257" lon="4.89695">
        <ele>45.8</ele>
        <time>2017-09-25T08:36:02Z</time>
      </trkpt>
      <trkpt lat="43.83255" lon="4.897">
        <ele>45.8</ele>
        <time>2017-09-25T08:36:03Z</time>
      </trkpt>
      <trkpt lat="43.83253" lon="4.89704">
        <ele>45.8</ele>
        <time>2017-09-25T08:36:04Z</time>
      </trkpt>
      <trkpt lat="43.83252" lon="4.89709">
        <ele>45.8</ele>
        <time>2017-09-25T08:36:05Z</time>
      </trkpt>
      <trkpt lat="43.83228" lon="4.89792">
        <ele>44.84</ele>
        <time>2017-09-25T08:36:19Z</time>
      </trkpt>
      <trkpt lat="43.83198" lon="4.8992">
        <ele>46.28</ele>
        <time>2017-09-25T08:36:40Z</time>
      </trkpt>
      <trkpt lat="43.83171" lon="4.90029">
        <ele>45.32</ele>
        <time>2017-09-25T08:36:58Z</time>
      </trkpt>
      <trkpt lat="43.8317" lon="4.90042">
        <ele>45.32</ele>
        <time>2017-09-25T08:37:00Z</time>
      </trkpt>
      <trkpt lat="43.83169" lon="4.90048">
        <ele>45.32</ele>
        <time>2017-09-25T08:37:01Z</time>
      </trkpt>
      <trkpt lat="43.83169" lon="4.90054">
        <ele>44.84</ele>
        <time>2017-09-25T08:37:02Z</time>
      </trkpt>
      <trkpt lat="43.83178" lon="4.90168">
        <ele>44.84</ele>
        <time>2017-09-25T08:37:20Z</time>
      </trkpt>
      <trkpt lat="43.83182" lon="4.90212">
        <ele>44.84</ele>
        <time>2017-09-25T08:37:27Z</time>
      </trkpt>
      <trkpt lat="43.83183" lon="4.90219">
        <ele>44.84</ele>
        <time>2017-09-25T08:37:28Z</time>
      </trkpt>
      <trkpt lat="43.83188" lon="4.90308">
        <ele>44.36</ele>
        <time>2017-09-25T08:37:42Z</time>
      </trkpt>
      <trkpt lat="43.8319" lon="4.90354">
        <ele>44.36</ele>
        <time>2017-09-25T08:37:51Z</time>
      </trkpt>
      <trkpt lat="43.83187" lon="4.90356">
        <ele>43.88</ele>
        <time>2017-09-25T08:37:52Z</time>
      </trkpt>
      <trkpt lat="43.83132" lon="4.90384">
        <ele>43.88</ele>
        <time>2017-09-25T08:38:06Z</time>
      </trkpt>
      <trkpt lat="43.83128" lon="4.90386">
        <ele>43.88</ele>
        <time>2017-09-25T08:38:07Z</time>
      </trkpt>
      <trkpt lat="43.83124" lon="4.90388">
        <ele>43.88</ele>
        <time>2017-09-25T08:38:08Z</time>
      </trkpt>
      <trkpt lat="43.8311" lon="4.90398">
        <ele>43.88</ele>
        <time>2017-09-25T08:38:12Z</time>
      </trkpt>
      <trkpt lat="43.83109" lon="4.90403">
        <ele>43.88</ele>
        <time>2017-09-25T08:38:13Z</time>
      </trkpt>
      <trkpt lat="43.83108" lon="4.90408">
        <ele>43.88</ele>
        <time>2017-09-25T08:38:14Z</time>
      </trkpt>
      <trkpt lat="43.83108" lon="4.90499">
        <ele>43.88</ele>
        <time>2017-09-25T08:38:29Z</time>
      </trkpt>
      <trkpt lat="43.83108" lon="4.90586">
        <ele>44.84</ele>
        <time>2017-09-25T08:38:43Z</time>
      </trkpt>
      <trkpt lat="43.8311" lon="4.90624">
        <ele>45.32</ele>
        <time>2017-09-25T08:38:49Z</time>
      </trkpt>
      <trkpt lat="43.8311" lon="4.90631">
        <ele>45.32</ele>
        <time>2017-09-25T08:38:50Z</time>
      </trkpt>
      <trkpt lat="43.8311" lon="4.90637">
        <ele>45.8</ele>
        <time>2017-09-25T08:38:51Z</time>
      </trkpt>
      <trkpt lat="43.83108" lon="4.90667">
        <ele>47.24</ele>
        <time>2017-09-25T08:38:56Z</time>
      </trkpt>
      <trkpt lat="43.83109" lon="4.90673">
        <ele>47.72</ele>
        <time>2017-09-25T08:38:57Z</time>
      </trkpt>
      <trkpt lat="43.83109" lon="4.90679">
        <ele>48.2</ele>
        <time>2017-09-25T08:38:58Z</time>
      </trkpt>
      <trkpt lat="43.83111" lon="4.90685">
        <ele>48.68</ele>
        <time>2017-09-25T08:38:59Z</time>
      </trkpt>
      <trkpt lat="43.83113" lon="4.90691">
        <ele>48.68</ele>
        <time>2017-09-25T08:39:00Z</time>
      </trkpt>
      <trkpt lat="43.83115" lon="4.90696">
        <ele>49.16</ele>
        <time>2017-09-25T08:39:01Z</time>
      </trkpt>
      <trkpt lat="43.83137" lon="4.90742">
        <ele>50.61</ele>
        <time>2017-09-25T08:39:14Z</time>
      </trkpt>
      <trkpt lat="43.83154" lon="4.90775">
        <ele>51.09</ele>
        <time>2017-09-25T08:39:25Z</time>
      </trkpt>
      <trkpt lat="43.83157" lon="4.90801">
        <ele>50.61</ele>
        <time>2017-09-25T08:39:30Z</time>
      </trkpt>
      <trkpt lat="43.83159" lon="4.90853">
        <ele>51.09</ele>
        <time>2017-09-25T08:39:38Z</time>
      </trkpt>
      <trkpt lat="43.83161" lon="4.90879">
        <ele>51.57</ele>
        <time>2017-09-25T08:39:42Z</time>
      </trkpt>
      <trkpt lat="43.83154" lon="4.90999">
        <ele>52.05</ele>
        <time>2017-09-25T08:40:01Z</time>
      </trkpt>
      <trkpt lat="43.83149" lon="4.91087">
        <ele>51.09</ele>
        <time>2017-09-25T08:40:15Z</time>
      </trkpt>
      <trkpt lat="43.83149" lon="4.91093">
        <ele>51.09</ele>
        <time>2017-09-25T08:40:16Z</time>
      </trkpt>
      <trkpt lat="43.83142" lon="4.91137">
        <ele>53.01</ele>
        <time>2017-09-25T08:40:23Z</time>
      </trkpt>
      <trkpt lat="43.8313" lon="4.91166">
        <ele>53.49</ele>
        <time>2017-09-25T08:40:28Z</time>
      </trkpt>
      <trkpt lat="43.83128" lon="4.91171">
        <ele>53.49</ele>
        <time>2017-09-25T08:40:29Z</time>
      </trkpt>
      <trkpt lat="43.83122" lon="4.91187">
        <ele>54.45</ele>
        <time>2017-09-25T08:40:32Z</time>
      </trkpt>
      <trkpt lat="43.83088" lon="4.91268">
        <ele>53.49</ele>
        <time>2017-09-25T08:40:47Z</time>
      </trkpt>
      <trkpt lat="43.83076" lon="4.91303">
        <ele>53.49</ele>
        <time>2017-09-25T08:40:53Z</time>
      </trkpt>
      <trkpt lat="43.8306" lon="4.9137">
        <ele>52.53</ele>
        <time>2017-09-25T08:41:04Z</time>
      </trkpt>
      <trkpt lat="43.8305" lon="4.91398">
        <ele>52.53</ele>
        <time>2017-09-25T08:41:09Z</time>
      </trkpt>
      <trkpt lat="43.83047" lon="4.91416">
        <ele>52.05</ele>
        <time>2017-09-25T08:41:12Z</time>
      </trkpt>
      <trkpt lat="43.83046" lon="4.91423">
        <ele>52.05</ele>
        <time>2017-09-25T08:41:13Z</time>
      </trkpt>
      <trkpt lat="43.83046" lon="4.91429">
        <ele>52.05</ele>
        <time>2017-09-25T08:41:14Z</time>
      </trkpt>
      <trkpt lat="43.83049" lon="4.91522">
        <ele>53.97</ele>
        <time>2017-09-25T08:41:29Z</time>
      </trkpt>
      <trkpt lat="43.83051" lon="4.91536">
        <ele>54.45</ele>
        <time>2017-09-25T08:41:31Z</time>
      </trkpt>
      <trkpt lat="43.83052" lon="4.91607">
        <ele>54.45</ele>
        <time>2017-09-25T08:41:42Z</time>
      </trkpt>
      <trkpt lat="43.83053" lon="4.91652">
        <ele>52.05</ele>
        <time>2017-09-25T08:41:49Z</time>
      </trkpt>
      <trkpt lat="43.83072" lon="4.91758">
        <ele>50.61</ele>
        <time>2017-09-25T08:42:06Z</time>
      </trkpt>
      <trkpt lat="43.83094" lon="4.91848">
        <ele>49.65</ele>
        <time>2017-09-25T08:42:21Z</time>
      </trkpt>
      <trkpt lat="43.83113" lon="4.91919">
        <ele>49.16</ele>
        <time>2017-09-25T08:42:33Z</time>
      </trkpt>
      <trkpt lat="43.83122" lon="4.91955">
        <ele>48.68</ele>
        <time>2017-09-25T08:42:39Z</time>
      </trkpt>
      <trkpt lat="43.83124" lon="4.91961">
        <ele>48.68</ele>
        <time>2017-09-25T08:42:40Z</time>
      </trkpt>
      <trkpt lat="43.83125" lon="4.91967">
        <ele>48.2</ele>
        <time>2017-09-25T08:42:41Z</time>
      </trkpt>
      <trkpt lat="43.83126" lon="4.91972">
        <ele>48.2</ele>
        <time>2017-09-25T08:42:42Z</time>
      </trkpt>
      <trkpt lat="43.83127" lon="4.91977">
        <ele>48.2</ele>
        <time>2017-09-25T08:42:43Z</time>
      </trkpt>
      <trkpt lat="43.83129" lon="4.91982">
        <ele>48.2</ele>
        <time>2017-09-25T08:42:44Z</time>
      </trkpt>
      <trkpt lat="43.83129" lon="4.91985">
        <ele>48.2</ele>
        <time>2017-09-25T08:42:45Z</time>
      </trkpt>
      <trkpt lat="43.8313" lon="4.91988">
        <ele>48.2</ele>
        <time>2017-09-25T08:42:46Z</time>
      </trkpt>
      <trkpt lat="43.83128" lon="4.91989">
        <ele>49.16</ele>
        <time>2017-09-25T08:43:01Z</time>
      </trkpt>
      <trkpt lat="43.8313" lon="4.91992">
        <ele>50.61</ele>
        <time>2017-09-25T08:43:34Z</time>
      </trkpt>
      <trkpt lat="43.83129" lon="4.91995">
        <ele>54.93</ele>
        <time>2017-09-25T08:44:00Z</time>
      </trkpt>
      <trkpt lat="43.83131" lon="4.91991">
        <ele>53.97</ele>
        <time>2017-09-25T08:44:38Z</time>
      </trkpt>
      <trkpt lat="43.83131" lon="4.91993">
        <ele>56.86</ele>
        <time>2017-09-25T08:45:22Z</time>
      </trkpt>
      <trkpt lat="43.83129" lon="4.91993">
        <ele>56.86</ele>
        <time>2017-09-25T08:45:59Z</time>
      </trkpt>
      <trkpt lat="43.83132" lon="4.91995">
        <ele>56.37</ele>
        <time>2017-09-25T08:46:36Z</time>
      </trkpt>
      <trkpt lat="43.83136" lon="4.92013">
        <ele>55.89</ele>
        <time>2017-09-25T08:46:52Z</time>
      </trkpt>
      <trkpt lat="43.83151" lon="4.92064">
        <ele>49.65</ele>
        <time>2017-09-25T08:47:04Z</time>
      </trkpt>
      <trkpt lat="43.83158" lon="4.92076">
        <ele>49.65</ele>
        <time>2017-09-25T08:47:06Z</time>
      </trkpt>
      <trkpt lat="43.83161" lon="4.92083">
        <ele>49.65</ele>
        <time>2017-09-25T08:47:07Z</time>
      </trkpt>
      <trkpt lat="43.83164" lon="4.92089">
        <ele>49.65</ele>
        <time>2017-09-25T08:47:08Z</time>
      </trkpt>
      <trkpt lat="43.83167" lon="4.92094">
        <ele>49.65</ele>
        <time>2017-09-25T08:47:09Z</time>
      </trkpt>
      <trkpt lat="43.83171" lon="4.92099">
        <ele>49.16</ele>
        <time>2017-09-25T08:47:10Z</time>
      </trkpt>
      <trkpt lat="43.83215" lon="4.92164">
        <ele>48.2</ele>
        <time>2017-09-25T08:47:23Z</time>
      </trkpt>
      <trkpt lat="43.83265" lon="4.92246">
        <ele>47.72</ele>
        <time>2017-09-25T08:47:39Z</time>
      </trkpt>
      <trkpt lat="43.83295" lon="4.92304">
        <ele>48.68</ele>
        <time>2017-09-25T08:47:50Z</time>
      </trkpt>
      <trkpt lat="43.83297" lon="4.9231">
        <ele>48.68</ele>
        <time>2017-09-25T08:47:51Z</time>
      </trkpt>
      <trkpt lat="43.83317" lon="4.92385">
        <ele>49.16</ele>
        <time>2017-09-25T08:48:04Z</time>
      </trkpt>
      <trkpt lat="43.83338" lon="4.92463">
        <ele>52.05</ele>
        <time>2017-09-25T08:48:17Z</time>
      </trkpt>
      <trkpt lat="43.83342" lon="4.92482">
        <ele>52.05</ele>
        <time>2017-09-25T08:48:20Z</time>
      </trkpt>
      <trkpt lat="43.83347" lon="4.92513">
        <ele>53.49</ele>
        <time>2017-09-25T08:48:25Z</time>
      </trkpt>
      <trkpt lat="43.83348" lon="4.9252">
        <ele>53.49</ele>
        <time>2017-09-25T08:48:26Z</time>
      </trkpt>
      <trkpt lat="43.83348" lon="4.92526">
        <ele>53.49</ele>
        <time>2017-09-25T08:48:27Z</time>
      </trkpt>
      <trkpt lat="43.83351" lon="4.92545">
        <ele>54.45</ele>
        <time>2017-09-25T08:48:30Z</time>
      </trkpt>
      <trkpt lat="43.83351" lon="4.92552">
        <ele>54.45</ele>
        <time>2017-09-25T08:48:31Z</time>
      </trkpt>
      <trkpt lat="43.83357" lon="4.92611">
        <ele>56.86</ele>
        <time>2017-09-25T08:48:40Z</time>
      </trkpt>
      <trkpt lat="43.83359" lon="4.9265">
        <ele>57.82</ele>
        <time>2017-09-25T08:48:46Z</time>
      </trkpt>
      <trkpt lat="43.83385" lon="4.92742">
        <ele>55.89</ele>
        <time>2017-09-25T08:49:02Z</time>
      </trkpt>
      <trkpt lat="43.83415" lon="4.92823">
        <ele>55.41</ele>
        <time>2017-09-25T08:49:16Z</time>
      </trkpt>
      <trkpt lat="43.83423" lon="4.92845">
        <ele>55.41</ele>
        <time>2017-09-25T08:49:20Z</time>
      </trkpt>
      <trkpt lat="43.83428" lon="4.92866">
        <ele>55.89</ele>
        <time>2017-09-25T08:49:26Z</time>
      </trkpt>
      <trkpt lat="43.83427" lon="4.92868">
        <ele>55.89</ele>
        <time>2017-09-25T08:49:27Z</time>
      </trkpt>
      <trkpt lat="43.83425" lon="4.9287">
        <ele>55.41</ele>
        <time>2017-09-25T08:49:28Z</time>
      </trkpt>
      <trkpt lat="43.83422" lon="4.92871">
        <ele>55.41</ele>
        <time>2017-09-25T08:49:29Z</time>
      </trkpt>
      <trkpt lat="43.83419" lon="4.92872">
        <ele>55.41</ele>
        <time>2017-09-25T08:49:30Z</time>
      </trkpt>
      <trkpt lat="43.83416" lon="4.92873">
        <ele>55.41</ele>
        <time>2017-09-25T08:49:31Z</time>
      </trkpt>
      <trkpt lat="43.83386" lon="4.92894">
        <ele>53.97</ele>
        <time>2017-09-25T08:49:40Z</time>
      </trkpt>
      <trkpt lat="43.83386" lon="4.92898">
        <ele>53.49</ele>
        <time>2017-09-25T08:49:41Z</time>
      </trkpt>
      <trkpt lat="43.83399" lon="4.92951">
        <ele>56.37</ele>
        <time>2017-09-25T08:49:51Z</time>
      </trkpt>
      <trkpt lat="43.83407" lon="4.92989">
        <ele>57.34</ele>
        <time>2017-09-25T08:49:57Z</time>
      </trkpt>
      <trkpt lat="43.83414" lon="4.9302">
        <ele>56.86</ele>
        <time>2017-09-25T08:50:02Z</time>
      </trkpt>
      <trkpt lat="43.83437" lon="4.93112">
        <ele>56.86</ele>
        <time>2017-09-25T08:50:17Z</time>
      </trkpt>
      <trkpt lat="43.83467" lon="4.93212">
        <ele>56.37</ele>
        <time>2017-09-25T08:50:34Z</time>
      </trkpt>
      <trkpt lat="43.83501" lon="4.9328">
        <ele>57.34</ele>
        <time>2017-09-25T08:50:47Z</time>
      </trkpt>
      <trkpt lat="43.83515" lon="4.9331">
        <ele>57.82</ele>
        <time>2017-09-25T08:50:53Z</time>
      </trkpt>
      <trkpt lat="43.83516" lon="4.93316">
        <ele>57.82</ele>
        <time>2017-09-25T08:50:54Z</time>
      </trkpt>
      <trkpt lat="43.83517" lon="4.93321">
        <ele>57.34</ele>
        <time>2017-09-25T08:50:55Z</time>
      </trkpt>
      <trkpt lat="43.83517" lon="4.93327">
        <ele>57.34</ele>
        <time>2017-09-25T08:50:56Z</time>
      </trkpt>
      <trkpt lat="43.83517" lon="4.93333">
        <ele>57.34</ele>
        <time>2017-09-25T08:50:57Z</time>
      </trkpt>
      <trkpt lat="43.83514" lon="4.93371">
        <ele>55.89</ele>
        <time>2017-09-25T08:51:03Z</time>
      </trkpt>
      <trkpt lat="43.83513" lon="4.93377">
        <ele>55.89</ele>
        <time>2017-09-25T08:51:04Z</time>
      </trkpt>
      <trkpt lat="43.83512" lon="4.93383">
        <ele>55.41</ele>
        <time>2017-09-25T08:51:05Z</time>
      </trkpt>
      <trkpt lat="43.83511" lon="4.93389">
        <ele>54.93</ele>
        <time>2017-09-25T08:51:06Z</time>
      </trkpt>
      <trkpt lat="43.83511" lon="4.93394">
        <ele>54.93</ele>
        <time>2017-09-25T08:51:07Z</time>
      </trkpt>
      <trkpt lat="43.83511" lon="4.934">
        <ele>54.93</ele>
        <time>2017-09-25T08:51:08Z</time>
      </trkpt>
      <trkpt lat="43.83514" lon="4.93404">
        <ele>54.93</ele>
        <time>2017-09-25T08:51:09Z</time>
      </trkpt>
      <trkpt lat="43.83518" lon="4.93407">
        <ele>54.93</ele>
        <time>2017-09-25T08:51:10Z</time>
      </trkpt>
      <trkpt lat="43.83522" lon="4.93408">
        <ele>54.93</ele>
        <time>2017-09-25T08:51:11Z</time>
      </trkpt>
      <trkpt lat="43.83526" lon="4.93408">
        <ele>54.45</ele>
        <time>2017-09-25T08:51:12Z</time>
      </trkpt>
      <trkpt lat="43.83567" lon="4.93413">
        <ele>53.01</ele>
        <time>2017-09-25T08:51:21Z</time>
      </trkpt>
      <trkpt lat="43.83572" lon="4.93413">
        <ele>53.01</ele>
        <time>2017-09-25T08:51:22Z</time>
      </trkpt>
      <trkpt lat="43.83631" lon="4.9342">
        <ele>53.49</ele>
        <time>2017-09-25T08:51:36Z</time>
      </trkpt>
      <trkpt lat="43.83632" lon="4.93422">
        <ele>53.49</ele>
        <time>2017-09-25T08:51:37Z</time>
      </trkpt>
      <trkpt lat="43.83633" lon="4.93425">
        <ele>53.97</ele>
        <time>2017-09-25T08:51:38Z</time>
      </trkpt>
      <trkpt lat="43.83635" lon="4.93464">
        <ele>53.49</ele>
        <time>2017-09-25T08:51:46Z</time>
      </trkpt>
      <trkpt lat="43.83635" lon="4.9347">
        <ele>53.49</ele>
        <time>2017-09-25T08:51:47Z</time>
      </trkpt>
      <trkpt lat="43.83628" lon="4.93558">
        <ele>53.97</ele>
        <time>2017-09-25T08:52:01Z</time>
      </trkpt>
      <trkpt lat="43.83622" lon="4.93622">
        <ele>53.97</ele>
        <time>2017-09-25T08:52:11Z</time>
      </trkpt>
      <trkpt lat="43.83627" lon="4.93699">
        <ele>53.97</ele>
        <time>2017-09-25T08:52:23Z</time>
      </trkpt>
      <trkpt lat="43.83629" lon="4.93759">
        <ele>53.01</ele>
        <time>2017-09-25T08:52:35Z</time>
      </trkpt>
      <trkpt lat="43.83631" lon="4.93761">
        <ele>53.49</ele>
        <time>2017-09-25T08:52:36Z</time>
      </trkpt>
      <trkpt lat="43.83632" lon="4.93762">
        <ele>53.97</ele>
        <time>2017-09-25T08:52:37Z</time>
      </trkpt>
      <trkpt lat="43.83633" lon="4.93763">
        <ele>53.97</ele>
        <time>2017-09-25T08:52:38Z</time>
      </trkpt>
      <trkpt lat="43.83635" lon="4.93763">
        <ele>54.45</ele>
        <time>2017-09-25T08:52:39Z</time>
      </trkpt>
      <trkpt lat="43.83636" lon="4.93763">
        <ele>54.93</ele>
        <time>2017-09-25T08:52:40Z</time>
      </trkpt>
      <trkpt lat="43.83638" lon="4.93762">
        <ele>55.41</ele>
        <time>2017-09-25T08:52:41Z</time>
      </trkpt>
      <trkpt lat="43.8364" lon="4.93762">
        <ele>55.89</ele>
        <time>2017-09-25T08:52:42Z</time>
      </trkpt>
      <trkpt lat="43.83681" lon="4.93759">
        <ele>56.37</ele>
        <time>2017-09-25T08:52:55Z</time>
      </trkpt>
      <trkpt lat="43.83729" lon="4.93744">
        <ele>59.26</ele>
        <time>2017-09-25T08:53:10Z</time>
      </trkpt>
      <trkpt lat="43.83745" lon="4.93736">
        <ele>59.26</ele>
        <time>2017-09-25T08:53:15Z</time>
      </trkpt>
      <trkpt lat="43.8375" lon="4.93724">
        <ele>57.82</ele>
        <time>2017-09-25T08:53:25Z</time>
      </trkpt>
      <trkpt lat="43.83751" lon="4.93726">
        <ele>58.78</ele>
        <time>2017-09-25T08:53:45Z</time>
      </trkpt>
      <trkpt lat="43.83748" lon="4.93725">
        <ele>58.78</ele>
        <time>2017-09-25T08:54:13Z</time>
      </trkpt>
      <trkpt lat="43.83751" lon="4.93722">
        <ele>62.62</ele>
        <time>2017-09-25T08:54:41Z</time>
      </trkpt>
      <trkpt lat="43.83754" lon="4.93721">
        <ele>65.51</ele>
        <time>2017-09-25T08:55:04Z</time>
      </trkpt>
      <trkpt lat="43.83749" lon="4.93718">
        <ele>62.14</ele>
        <time>2017-09-25T08:55:45Z</time>
      </trkpt>
      <trkpt lat="43.83736" lon="4.93716">
        <ele>12.63</ele>
        <time>2017-09-25T08:56:17Z</time>
      </trkpt>
      <trkpt lat="43.83749" lon="4.93725">
        <ele>56.86</ele>
        <time>2017-09-25T08:56:52Z</time>
      </trkpt>
      <trkpt lat="43.83754" lon="4.93721">
        <ele>67.43</ele>
        <time>2017-09-25T08:57:24Z</time>
      </trkpt>
    </trkseg>
  </trk>
</gpx>